createdAt,value
2023-01-19T00:02:26.001Z,80.40
2023-01-19T00:05:48.318Z,80.30
2023-01-19T00:09:10.543Z,80.40
2023-01-19T00:12:32.769Z,80.30
2023-01-19T00:15:54.929Z,80.30
2023-01-19T00:19:17.101Z,80.30
2023-01-19T00:22:39.248Z,80.10
2023-01-19T00:26:01.446Z,80.20
2023-01-19T00:29:24.149Z,80.20
2023-01-19T00:32:46.348Z,80.20
2023-01-19T00:36:08.765Z,80.20
2023-01-19T00:39:30.941Z,80.20
2023-01-19T00:42:53.153Z,80.20
2023-01-19T00:46:15.336Z,80.20
2023-01-19T00:49:37.588Z,80.20
2023-01-19T00:53:03.339Z,80.20
2023-01-19T00:56:25.595Z,80.10
2023-01-19T00:59:47.750Z,80.20
2023-01-19T01:03:09.956Z,80.10
2023-01-19T01:06:32.254Z,80.00
2023-01-19T01:09:54.466Z,80.00
2023-01-19T01:13:21.444Z,80.00
2023-01-19T01:16:46.074Z,80.00
2023-01-19T01:20:08.584Z,80.00
2023-01-19T01:23:30.817Z,80.40
2023-01-19T01:26:52.986Z,79.80
2023-01-19T01:30:15.582Z,79.80
2023-01-19T01:33:40.975Z,79.70
2023-01-19T01:37:03.807Z,79.80
2023-01-19T01:40:26.715Z,79.70
2023-01-19T01:43:50.338Z,79.60
2023-01-19T01:47:12.691Z,79.70
2023-01-19T01:50:37.417Z,79.60
2023-01-19T01:54:06.815Z,79.50
2023-01-19T01:57:29.962Z,79.40
2023-01-19T02:01:10.822Z,79.30
2023-01-19T02:04:33.075Z,79.30
2023-01-19T02:08:20.384Z,79.20
2023-01-19T02:15:06.681Z,79.10
2023-01-19T02:18:30.317Z,79.10
2023-01-19T02:21:37.957Z,79.30
2023-01-19T02:25:00.185Z,79.50
2023-01-19T02:28:22.314Z,79.70
2023-01-19T02:31:45.323Z,79.60
2023-01-19T02:35:07.649Z,79.70
2023-01-19T02:38:30.417Z,79.60
2023-01-19T02:41:54.692Z,79.70
2023-01-19T02:45:18.284Z,79.80
2023-01-19T02:48:40.453Z,79.80
2023-01-19T02:52:02.635Z,79.80
2023-01-19T02:55:28.378Z,79.70
2023-01-19T02:59:05.897Z,79.70
2023-01-19T03:02:31.225Z,79.70
2023-01-19T03:05:53.460Z,79.60
2023-01-19T03:09:21.784Z,79.60
2023-01-19T03:13:08.962Z,79.60
2023-01-19T03:16:50.345Z,80.10
2023-01-19T03:20:14.003Z,80.50
2023-01-19T03:23:37.729Z,80.20
2023-01-19T03:27:02.039Z,80.30
2023-01-19T03:30:26.113Z,80.10
2023-01-19T03:33:53.516Z,80.20
2023-01-19T03:37:16.717Z,79.90
2023-01-19T03:40:39.293Z,79.80
2023-01-19T03:44:01.657Z,79.70
2023-01-19T03:47:25.189Z,79.90
2023-01-19T03:50:47.606Z,79.60
2023-01-19T03:54:10.766Z,79.60
2023-01-19T03:57:32.925Z,79.90
2023-01-19T04:00:55.061Z,79.80
2023-01-19T04:04:17.257Z,79.80
2023-01-19T04:07:39.345Z,79.80
2023-01-19T04:11:01.596Z,79.80
2023-01-19T04:14:23.782Z,79.80
2023-01-19T04:17:46.006Z,79.80
2023-01-19T04:21:08.171Z,79.80
2023-01-19T04:24:30.313Z,79.70
2023-01-19T04:27:53.096Z,79.70
2023-01-19T04:31:15.321Z,79.60
2023-01-19T04:34:37.409Z,79.50
2023-01-19T04:37:59.611Z,79.50
2023-01-19T04:41:21.733Z,79.40
2023-01-19T04:44:43.889Z,79.40
2023-01-19T04:48:06.112Z,79.30
2023-01-19T04:51:28.833Z,79.30
2023-01-19T04:54:50.922Z,79.20
2023-01-19T04:58:13.124Z,79.10
2023-01-19T05:01:35.444Z,78.80
2023-01-19T05:04:57.618Z,79.10
2023-01-19T05:08:19.843Z,78.80
2023-01-19T05:11:42.094Z,79.00
2023-01-19T05:15:04.470Z,78.90
2023-01-19T05:18:26.649Z,78.80
2023-01-19T05:21:48.766Z,78.50
2023-01-19T05:25:10.885Z,78.30
2023-01-19T05:28:33.468Z,78.20
2023-01-19T05:31:55.762Z,78.00
2023-01-19T05:35:20.154Z,77.90
2023-01-19T05:38:47.188Z,77.80
2023-01-19T05:42:09.324Z,77.60
2023-01-19T05:45:31.459Z,77.50
2023-01-19T05:48:53.760Z,77.40
2023-01-19T05:52:16.342Z,77.40
2023-01-19T05:55:38.655Z,77.30
2023-01-19T05:59:00.857Z,77.40
2023-01-19T06:02:28.601Z,77.30
2023-01-19T06:05:51.074Z,77.30
2023-01-19T06:09:13.210Z,77.40
2023-01-19T06:12:35.380Z,77.40
2023-01-19T06:15:58.514Z,77.40
2023-01-19T06:19:20.870Z,77.50
2023-01-19T06:22:42.981Z,77.50
2023-01-19T06:26:05.446Z,77.50
2023-01-19T06:29:28.748Z,77.50
2023-01-19T06:32:53.161Z,77.60
2023-01-19T06:36:15.428Z,77.60
2023-01-19T06:39:40.856Z,77.60
2023-01-19T06:43:03.331Z,77.50
2023-01-19T06:46:26.226Z,77.60
2023-01-19T06:49:49.063Z,77.50
2023-01-19T06:53:11.962Z,79.70
2023-01-19T06:56:34.148Z,79.50
2023-01-19T06:59:59.179Z,78.80
2023-01-19T07:03:22.190Z,78.50
2023-01-19T07:06:44.426Z,79.10
2023-01-19T07:10:08.137Z,78.60
2023-01-19T07:13:30.706Z,78.00
2023-01-19T07:16:52.876Z,78.20
2023-01-19T07:20:15.100Z,78.40
2023-01-19T07:23:38.531Z,78.90
2023-01-19T07:27:00.713Z,79.10
2023-01-19T07:30:22.790Z,78.80
2023-01-19T07:33:45.403Z,77.80
2023-01-19T07:37:07.529Z,78.00
2023-01-19T07:40:29.705Z,78.30
2023-01-19T07:43:52.763Z,78.00
2023-01-19T07:47:15.238Z,78.20
2023-01-19T07:50:37.433Z,78.80
2023-01-19T07:53:59.564Z,78.50
2023-01-19T07:57:22.012Z,79.30
2023-01-19T08:00:44.163Z,75.90
2023-01-19T08:04:06.328Z,76.90
2023-01-19T08:07:28.481Z,79.30
2023-01-19T08:10:51.092Z,79.30
2023-01-19T08:14:13.259Z,79.70
2023-01-19T08:17:35.832Z,80.60
2023-01-19T08:21:00.911Z,79.30
2023-01-19T08:24:25.398Z,79.60
2023-01-19T08:27:47.585Z,80.20
2023-01-19T08:31:19.766Z,79.70
2023-01-19T08:34:43.846Z,78.40
2023-01-19T08:38:06.490Z,78.90
2023-01-19T08:41:28.684Z,79.20
2023-01-19T08:44:58.165Z,79.40
2023-01-19T08:48:24.341Z,79.00
2023-01-19T08:51:46.951Z,76.90
2023-01-19T08:55:09.458Z,77.40
2023-01-19T08:58:31.606Z,78.50
2023-01-19T09:01:53.858Z,79.80
2023-01-19T09:05:16.055Z,81.70
2023-01-19T09:08:38.474Z,82.00
2023-01-19T09:12:00.670Z,82.10
2023-01-19T09:15:23.145Z,81.20
2023-01-19T09:18:46.188Z,80.20
2023-01-19T09:22:08.399Z,81.20
2023-01-19T09:25:30.660Z,81.70
2023-01-19T09:28:52.939Z,82.30
2023-01-19T09:32:23.980Z,81.60
2023-01-19T09:35:47.585Z,77.50
2023-01-19T09:39:11.066Z,80.40
2023-01-19T09:42:44.039Z,80.50
2023-01-19T09:46:15.286Z,81.90
2023-01-19T09:49:41.307Z,82.40
2023-01-19T09:53:39.080Z,82.40
2023-01-19T09:57:01.552Z,81.80
2023-01-19T10:00:24.500Z,82.40
2023-01-19T10:03:49.829Z,82.10
2023-01-19T10:07:30.755Z,82.40
2023-01-19T10:10:53.725Z,82.10
2023-01-19T10:14:23.945Z,81.40
2023-01-19T10:17:52.273Z,81.50
2023-01-19T10:21:20.457Z,82.10
2023-01-19T10:24:43.603Z,81.40
2023-01-19T10:28:05.752Z,81.60
2023-01-19T10:31:28.014Z,81.70
2023-01-19T10:34:50.592Z,82.10
2023-01-19T10:38:14.469Z,82.40
2023-01-19T10:41:44.415Z,81.90
2023-01-19T10:45:16.129Z,82.40
2023-01-19T10:48:41.967Z,82.80
2023-01-19T10:52:06.200Z,82.70
2023-01-19T10:55:33.047Z,82.40
2023-01-19T10:58:55.407Z,81.40
2023-01-19T11:02:22.286Z,81.10
2023-01-19T11:05:44.597Z,81.00
2023-01-19T11:09:16.479Z,81.60
2023-01-19T11:12:54.993Z,81.90
2023-01-19T11:16:23.155Z,81.10
2023-01-19T11:19:52.356Z,81.30
2023-01-19T11:23:14.508Z,81.10
2023-01-19T11:26:44.253Z,80.80
2023-01-19T11:30:14.831Z,81.10
2023-01-19T11:33:40.989Z,81.10
2023-01-19T11:37:23.592Z,81.10
2023-01-19T11:40:54.336Z,80.30
2023-01-19T11:44:19.873Z,80.30
2023-01-19T11:47:47.097Z,80.90
2023-01-19T11:51:16.714Z,80.70
2023-01-19T11:54:46.397Z,80.70
2023-01-19T11:58:12.667Z,82.10
2023-01-19T12:01:36.725Z,83.80
2023-01-19T12:05:00.973Z,84.40
2023-01-19T12:08:30.069Z,85.30
2023-01-19T12:11:55.193Z,85.80
2023-01-19T12:15:18.475Z,86.30
2023-01-19T12:19:06.724Z,85.70
2023-01-19T12:22:29.921Z,85.00
2023-01-19T12:25:55.234Z,84.80
2023-01-19T12:29:19.806Z,84.50
2023-01-19T12:32:43.166Z,85.00
2023-01-19T12:36:35.344Z,85.00
2023-01-19T12:39:59.468Z,85.50
2023-01-19T12:43:21.690Z,84.30
2023-01-19T12:46:46.002Z,85.60
2023-01-19T12:50:14.778Z,85.00
2023-01-19T12:53:36.909Z,84.40
2023-01-19T12:57:01.228Z,84.30
2023-01-19T13:00:23.370Z,84.00
2023-01-19T13:03:57.092Z,84.00
2023-01-19T13:07:20.282Z,83.70
2023-01-19T13:10:56.449Z,83.80
2023-01-19T13:14:34.849Z,83.40
2023-01-19T13:17:57.411Z,83.50
2023-01-19T13:21:26.889Z,83.40
2023-01-19T13:25:10.436Z,83.20
2023-01-19T13:28:43.116Z,83.30
2023-01-19T13:32:11.505Z,83.20
2023-01-19T13:35:33.828Z,83.90
2023-01-19T13:38:57.484Z,83.20
2023-01-19T13:42:25.571Z,82.00
2023-01-19T13:45:52.395Z,83.40
2023-01-19T13:49:18.434Z,83.40
2023-01-19T13:52:43.401Z,83.70
2023-01-19T13:56:25.865Z,82.00
2023-01-19T14:00:00.806Z,81.90
2023-01-19T14:03:24.232Z,81.80
2023-01-19T14:06:48.913Z,81.20
2023-01-19T14:10:14.251Z,82.00
2023-01-19T14:13:41.652Z,82.40
2023-01-19T14:17:04.268Z,82.50
2023-01-19T14:20:30.198Z,82.40
2023-01-19T14:24:07.424Z,82.20
2023-01-19T14:27:29.631Z,82.40
2023-01-19T14:30:55.870Z,82.00
2023-01-19T14:34:36.260Z,81.50
2023-01-19T14:37:58.326Z,81.70
2023-01-19T14:41:25.100Z,80.90
2023-01-19T14:44:48.852Z,81.20
2023-01-19T14:48:31.259Z,81.80
2023-01-19T14:51:53.547Z,82.40
2023-01-19T14:55:21.009Z,81.50
2023-01-19T14:59:00.950Z,81.30
2023-01-19T15:02:23.215Z,81.60
2023-01-19T15:05:46.918Z,82.30
2023-01-19T15:09:10.831Z,83.10
2023-01-19T15:12:32.981Z,82.30
2023-01-19T15:15:55.270Z,82.30
2023-01-19T15:19:18.558Z,83.30
2023-01-19T15:22:40.721Z,83.40
2023-01-19T15:26:04.690Z,82.40
2023-01-19T15:29:26.853Z,83.40
2023-01-19T15:32:49.411Z,83.40
2023-01-19T15:36:19.128Z,81.30
2023-01-19T15:39:41.292Z,82.80
2023-01-19T15:43:03.469Z,82.30
2023-01-19T15:46:25.869Z,82.30
2023-01-19T15:49:48.030Z,82.00
2023-01-19T15:53:14.147Z,82.20
2023-01-19T15:56:36.530Z,81.80
2023-01-19T15:59:58.640Z,81.60
2023-01-19T16:03:20.872Z,81.40
2023-01-19T16:06:43.502Z,81.40
2023-01-19T16:10:09.478Z,80.80
2023-01-19T16:13:32.425Z,81.30
2023-01-19T16:16:54.632Z,81.60
2023-01-19T16:20:18.359Z,81.50
2023-01-19T16:23:40.642Z,81.60
2023-01-19T16:27:03.953Z,81.50
2023-01-19T16:30:26.141Z,81.10
2023-01-19T16:33:49.211Z,81.50
2023-01-19T16:37:11.440Z,81.50
2023-01-19T16:40:33.626Z,81.50
2023-01-19T16:43:56.531Z,81.50
2023-01-19T16:47:20.285Z,80.60
2023-01-19T16:50:42.628Z,80.30
2023-01-19T16:54:08.654Z,80.00
2023-01-19T16:57:32.725Z,80.20
2023-01-19T17:00:55.163Z,80.90
2023-01-19T17:04:17.979Z,81.60
2023-01-19T17:07:40.189Z,80.80
2023-01-19T17:11:07.843Z,81.90
2023-01-19T17:14:30.069Z,81.90
2023-01-19T17:17:52.247Z,82.00
2023-01-19T17:21:17.826Z,82.40
2023-01-19T17:24:42.473Z,82.20
2023-01-19T17:28:04.752Z,80.10
2023-01-19T17:31:27.352Z,80.40
2023-01-19T17:34:49.586Z,80.80
2023-01-19T17:38:11.785Z,80.60
2023-01-19T17:41:35.060Z,80.60
2023-01-19T17:44:57.191Z,80.50
2023-01-19T17:48:19.433Z,80.60
2023-01-19T17:51:41.595Z,80.10
2023-01-19T17:55:03.875Z,80.30
2023-01-19T17:58:26.302Z,80.10
2023-01-19T18:01:48.578Z,80.30
2023-01-19T18:05:12.634Z,80.20
2023-01-19T18:08:36.282Z,80.30
2023-01-19T18:11:58.458Z,80.20
2023-01-19T18:15:20.643Z,80.10
2023-01-19T18:18:44.093Z,79.30
2023-01-19T18:22:06.217Z,79.40
2023-01-19T18:25:28.363Z,80.30
2023-01-19T18:28:54.270Z,80.80
2023-01-19T18:32:16.394Z,80.80
2023-01-19T18:35:38.872Z,81.90
2023-01-19T18:39:01.262Z,78.70
2023-01-19T18:42:23.453Z,78.30
2023-01-19T18:45:48.020Z,78.00
2023-01-19T18:49:10.169Z,78.90
2023-01-19T18:52:33.387Z,80.30
2023-01-19T18:55:56.492Z,78.20
2023-01-19T18:59:18.683Z,80.30
2023-01-19T19:02:40.821Z,81.50
2023-01-19T19:06:03.665Z,80.20
2023-01-19T19:09:25.867Z,85.30
2023-01-19T19:12:48.292Z,88.40
2023-01-19T19:16:11.318Z,87.30
2023-01-19T19:19:33.512Z,87.30
2023-01-19T19:22:56.017Z,86.70
2023-01-19T19:26:18.588Z,83.60
2023-01-19T19:29:41.410Z,83.80
2023-01-19T19:33:03.586Z,84.70
2023-01-19T19:36:27.256Z,85.00
2023-01-19T19:39:49.414Z,83.40
2023-01-19T19:43:11.537Z,81.30
2023-01-19T19:46:33.829Z,81.90
2023-01-19T19:49:56.019Z,85.50
2023-01-19T19:53:18.150Z,84.40
2023-01-19T19:56:40.234Z,81.60
2023-01-19T20:00:03.090Z,85.50
2023-01-19T20:03:31.380Z,85.40
2023-01-19T20:06:53.536Z,81.90
2023-01-19T20:10:15.845Z,83.60
2023-01-19T20:13:39.055Z,82.50
2023-01-19T20:17:01.176Z,83.20
2023-01-19T20:20:23.800Z,82.10
2023-01-19T20:23:47.093Z,82.60
2023-01-19T20:27:09.301Z,79.30
2023-01-19T20:30:31.398Z,81.20
2023-01-19T20:33:54.826Z,83.20
2023-01-19T20:37:17.065Z,82.80
2023-01-19T20:40:39.245Z,82.80
2023-01-19T20:44:01.699Z,82.60
2023-01-19T20:47:23.931Z,82.70
2023-01-19T20:50:46.114Z,82.50
2023-01-19T20:54:08.281Z,82.40
2023-01-19T20:57:30.405Z,82.70
2023-01-19T21:00:52.582Z,82.40
2023-01-19T21:04:15.229Z,82.50
2023-01-19T21:07:37.449Z,82.60
2023-01-19T21:10:59.767Z,82.50
2023-01-19T21:14:21.968Z,82.30
2023-01-19T21:17:45.236Z,82.20
2023-01-19T21:21:10.670Z,82.20
2023-01-19T21:24:37.209Z,82.10
2023-01-19T21:27:59.368Z,81.00
2023-01-19T21:31:26.377Z,80.20
2023-01-19T21:34:49.656Z,82.50
2023-01-19T21:38:11.762Z,83.30
2023-01-19T21:41:35.879Z,82.90
2023-01-19T21:44:58.452Z,83.20
2023-01-19T21:48:20.675Z,80.70
2023-01-19T21:51:44.477Z,80.70
2023-01-19T21:55:07.569Z,80.50
2023-01-19T21:58:29.654Z,78.20
2023-01-19T22:01:51.934Z,81.20
2023-01-19T22:05:14.556Z,81.40
2023-01-19T22:08:37.412Z,81.50
2023-01-19T22:11:59.522Z,81.40
2023-01-19T22:15:21.661Z,80.80
2023-01-19T22:18:45.033Z,79.50
2023-01-19T22:22:07.208Z,79.50
2023-01-19T22:25:29.349Z,80.00
2023-01-19T22:28:55.833Z,80.30
2023-01-19T22:32:17.981Z,79.60
2023-01-19T22:35:40.117Z,79.60
2023-01-19T22:39:06.604Z,78.80
2023-01-19T22:42:28.832Z,79.10
2023-01-19T22:45:50.999Z,78.70
2023-01-19T22:49:14.841Z,79.10
2023-01-19T22:52:36.957Z,79.10
2023-01-19T22:55:59.173Z,79.10
2023-01-19T22:59:21.259Z,79.60
2023-01-19T23:02:43.393Z,79.30
2023-01-19T23:06:12.727Z,78.00
2023-01-19T23:09:35.586Z,79.30
2023-01-19T23:12:57.714Z,79.60
2023-01-19T23:16:20.125Z,79.60
2023-01-19T23:19:42.298Z,79.60
2023-01-19T23:23:05.130Z,79.50
2023-01-19T23:26:27.644Z,79.40
2023-01-19T23:29:49.829Z,79.10
2023-01-19T23:33:11.960Z,78.70
2023-01-19T23:36:35.287Z,76.90
2023-01-19T23:39:57.525Z,77.60
2023-01-19T23:43:19.863Z,78.40
2023-01-19T23:46:42.071Z,78.50
2023-01-19T23:50:04.344Z,78.50
2023-01-19T23:53:26.502Z,78.50
2023-01-19T23:56:48.681Z,78.30
